createdAt,value
2018-05-31T00:01:38.418Z,94.68
2018-05-31T00:04:05.896Z,97.10
2018-05-31T00:06:33.347Z,95.87
2018-05-31T00:09:00.896Z,105.72
2018-05-31T00:11:28.461Z,95.28
2018-05-31T00:13:55.916Z,93.07
2018-05-31T00:16:23.395Z,96.10
2018-05-31T00:18:50.839Z,103.32
2018-05-31T00:21:18.379Z,98.90
2018-05-31T00:23:45.847Z,106.37
2018-05-31T00:26:13.490Z,112.37
2018-05-31T00:28:40.945Z,109.90
2018-05-31T00:31:08.404Z,98.12
2018-05-31T00:33:35.842Z,96.68
2018-05-31T00:36:03.288Z,107.90
2018-05-31T00:38:31.503Z,108.35
2018-05-31T00:40:58.952Z,111.50
2018-05-31T00:43:26.409Z,113.28
2018-05-31T00:45:53.864Z,111.00
2018-05-31T00:48:21.339Z,107.93
2018-05-31T00:50:48.795Z,97.03
2018-05-31T00:53:16.249Z,94.93
2018-05-31T00:55:55.738Z,91.37
2018-05-31T00:58:23.237Z,91.85
2018-05-31T01:00:50.716Z,92.90
2018-05-31T01:03:18.357Z,110.28
2018-05-31T01:05:45.779Z,93.55
2018-05-31T01:08:14.005Z,96.07
2018-05-31T01:10:41.459Z,98.15
2018-05-31T01:13:09.671Z,110.18
2018-05-31T01:15:37.135Z,127.80
2018-05-31T01:18:04.591Z,119.75
2018-05-31T01:20:32.046Z,91.53
2018-05-31T01:22:59.491Z,100.55
2018-05-31T01:25:26.931Z,96.85
2018-05-31T01:27:54.428Z,102.43
2018-05-31T01:30:21.864Z,106.37
2018-05-31T01:32:49.352Z,117.28
2018-05-31T01:35:16.899Z,93.60
2018-05-31T01:37:44.343Z,98.20
2018-05-31T01:40:11.778Z,90.10
2018-05-31T01:42:39.236Z,101.22
2018-05-31T01:45:06.737Z,102.10
2018-05-31T01:47:34.276Z,104.80
2018-05-31T01:50:01.720Z,99.05
2018-05-31T01:52:29.172Z,100.97
2018-05-31T01:54:56.619Z,106.37
2018-05-31T01:57:24.113Z,100.95
2018-05-31T01:59:51.557Z,115.85
2018-05-31T02:02:18.995Z,94.70
2018-05-31T02:04:46.484Z,80.70
2018-05-31T02:07:13.939Z,75.18
2018-05-31T02:09:41.405Z,73.47
2018-05-31T02:12:08.952Z,73.93
2018-05-31T02:14:36.375Z,81.63
2018-05-31T02:17:04.594Z,81.32
2018-05-31T02:19:32.142Z,74.40
2018-05-31T02:21:59.567Z,72.73
2018-05-31T02:24:27.019Z,76.43
2018-05-31T02:26:55.228Z,70.20
2018-05-31T02:29:22.658Z,76.40
2018-05-31T02:31:51.169Z,77.62
2018-05-31T02:34:18.612Z,86.33
2018-05-31T02:36:46.185Z,99.73
2018-05-31T02:39:13.664Z,87.03
2018-05-31T02:41:41.115Z,85.73
2018-05-31T02:44:08.549Z,83.97
2018-05-31T02:46:35.995Z,82.10
2018-05-31T02:49:03.483Z,82.70
2018-05-31T02:51:30.923Z,86.43
2018-05-31T02:53:58.385Z,96.33
2018-05-31T02:56:25.821Z,102.90
2018-05-31T02:58:54.133Z,106.60
2018-05-31T03:01:21.686Z,104.70
2018-05-31T03:03:49.147Z,96.87
2018-05-31T03:06:16.603Z,102.80
2018-05-31T03:08:44.158Z,108.67
2018-05-31T03:11:11.623Z,97.67
2018-05-31T03:13:39.069Z,96.67
2018-05-31T03:16:06.539Z,90.13
2018-05-31T03:18:33.998Z,84.23
2018-05-31T03:21:01.431Z,76.37
2018-05-31T03:23:28.882Z,77.37
2018-05-31T03:25:56.367Z,91.78
2018-05-31T03:28:23.818Z,82.40
2018-05-31T03:30:51.280Z,95.07
2018-05-31T03:33:18.719Z,127.73
2018-05-31T03:35:46.278Z,112.40
2018-05-31T03:38:13.732Z,88.97
2018-05-31T03:40:41.203Z,88.53
2018-05-31T03:43:08.639Z,89.97
2018-05-31T03:45:36.084Z,87.40
2018-05-31T03:48:03.520Z,88.23
2018-05-31T03:50:31.735Z,92.37
2018-05-31T03:52:59.171Z,88.67
2018-05-31T03:55:26.661Z,91.63
2018-05-31T03:57:54.108Z,86.20
2018-05-31T04:00:21.550Z,99.53
2018-05-31T04:02:49.035Z,103.40
2018-05-31T04:05:16.490Z,104.00
2018-05-31T04:07:43.938Z,107.13
2018-05-31T04:10:11.403Z,112.88
2018-05-31T04:12:38.855Z,117.87
2018-05-31T04:15:06.323Z,115.63
2018-05-31T04:17:33.782Z,116.53
2018-05-31T04:20:01.236Z,114.90
2018-05-31T04:22:28.681Z,110.50
2018-05-31T04:24:56.139Z,108.43
2018-05-31T04:27:23.619Z,106.97
2018-05-31T04:29:51.056Z,110.40
2018-05-31T04:32:18.499Z,116.40
2018-05-31T04:34:45.927Z,98.03
2018-05-31T04:37:14.154Z,102.07
2018-05-31T04:39:41.706Z,112.40
2018-05-31T04:42:09.134Z,99.70
2018-05-31T04:44:37.351Z,110.10
2018-05-31T04:47:04.779Z,118.23
2018-05-31T04:49:32.258Z,137.25
2018-05-31T04:51:59.686Z,133.43
2018-05-31T04:54:27.131Z,146.43
2018-05-31T04:56:55.342Z,128.55
2018-05-31T04:59:22.782Z,149.00
2018-05-31T05:01:50.272Z,134.35
2018-05-31T05:04:17.734Z,130.65
2018-05-31T05:06:45.171Z,130.70
2018-05-31T05:09:12.626Z,127.53
2018-05-31T05:11:40.096Z,130.47
2018-05-31T05:14:07.559Z,122.23
2018-05-31T05:16:35.100Z,128.52
2018-05-31T05:19:02.527Z,123.47
2018-05-31T05:21:30.746Z,123.62
2018-05-31T05:23:58.185Z,119.57
2018-05-31T05:26:25.689Z,121.67
2018-05-31T05:28:53.111Z,122.47
2018-05-31T05:31:20.546Z,120.28
2018-05-31T05:33:48.157Z,118.70
2018-05-31T05:36:15.591Z,114.68
2018-05-31T05:38:43.048Z,118.45
2018-05-31T05:41:10.493Z,103.57
2018-05-31T05:43:37.996Z,117.78
2018-05-31T05:46:05.383Z,110.18
2018-05-31T05:48:32.879Z,115.82
2018-05-31T05:51:00.455Z,118.00
2018-05-31T05:53:27.935Z,108.53
2018-05-31T05:55:55.547Z,99.15
2018-05-31T05:58:22.975Z,112.30
2018-05-31T06:00:50.415Z,95.07
2018-05-31T06:03:17.935Z,107.32
2018-05-31T06:05:45.438Z,103.28
2018-05-31T06:08:13.679Z,98.75
2018-05-31T06:10:41.227Z,100.32
2018-05-31T06:13:08.684Z,102.35
2018-05-31T06:15:36.183Z,101.07
2018-05-31T06:18:03.581Z,104.32
2018-05-31T06:20:31.041Z,97.40
2018-05-31T06:22:58.502Z,95.60
2018-05-31T06:25:26.061Z,119.28
2018-05-31T06:27:53.491Z,108.05
2018-05-31T06:30:20.939Z,106.32
2018-05-31T06:32:49.167Z,99.65
2018-05-31T06:35:16.599Z,125.65
2018-05-31T06:37:44.035Z,121.40
2018-05-31T06:40:12.341Z,111.03
2018-05-31T06:42:39.760Z,124.68
2018-05-31T06:45:07.971Z,112.93
2018-05-31T06:47:35.415Z,107.55
2018-05-31T06:50:02.851Z,103.03
2018-05-31T06:52:33.213Z,99.35
2018-05-31T06:55:00.876Z,92.60
2018-05-31T06:57:28.311Z,91.10
2018-05-31T06:59:55.747Z,83.25
2018-05-31T07:02:23.943Z,74.78
2018-05-31T07:04:51.395Z,71.57
2018-05-31T07:07:18.830Z,70.20
2018-05-31T07:09:47.114Z,63.70
2018-05-31T07:12:14.547Z,65.70
2018-05-31T07:14:42.004Z,70.62
2018-05-31T07:17:09.459Z,64.00
2018-05-31T07:19:36.899Z,60.35
2018-05-31T07:22:04.382Z,63.65
2018-05-31T07:24:31.813Z,59.97
2018-05-31T07:26:59.278Z,61.55
2018-05-31T07:29:26.847Z,56.85
2018-05-31T07:31:54.300Z,64.18
2018-05-31T07:34:21.851Z,57.65
2018-05-31T07:36:49.495Z,63.65
2018-05-31T07:39:16.911Z,61.20
2018-05-31T07:41:45.137Z,58.85
2018-05-31T07:44:12.582Z,61.65
2018-05-31T07:46:40.033Z,61.15
2018-05-31T07:49:07.507Z,57.38
2018-05-31T07:51:34.953Z,59.75
2018-05-31T07:54:02.496Z,61.88
2018-05-31T07:56:29.936Z,60.38
2018-05-31T07:58:57.399Z,60.75
2018-05-31T08:01:24.857Z,61.88
2018-05-31T08:03:52.319Z,60.38
2018-05-31T08:06:19.881Z,59.05
2018-05-31T08:08:47.338Z,57.95
2018-05-31T08:11:14.817Z,61.83
2018-05-31T08:13:42.220Z,59.25
2018-05-31T08:16:10.534Z,57.83
2018-05-31T08:18:38.106Z,62.43
2018-05-31T08:21:05.693Z,57.95
2018-05-31T08:23:33.924Z,62.55
2018-05-31T08:26:01.375Z,58.63
2018-05-31T08:28:28.827Z,58.05
2018-05-31T08:30:56.387Z,54.70
2018-05-31T08:33:23.903Z,51.72
2018-05-31T08:35:51.353Z,53.20
2018-05-31T08:38:18.780Z,48.85
2018-05-31T08:40:46.268Z,51.65
2018-05-31T08:43:13.727Z,53.13
2018-05-31T08:45:41.174Z,50.75
2018-05-31T08:48:08.641Z,55.20
2018-05-31T08:50:36.131Z,57.00
2018-05-31T08:53:03.563Z,55.10
2018-05-31T08:55:31.026Z,55.65
2018-05-31T08:57:58.479Z,55.25
2018-05-31T09:00:25.920Z,55.90
2018-05-31T09:02:53.362Z,56.10
2018-05-31T09:05:20.879Z,51.20
2018-05-31T09:07:49.111Z,56.58
2018-05-31T09:10:16.579Z,56.05
2018-05-31T09:12:44.036Z,57.20
2018-05-31T09:15:11.578Z,60.25
2018-05-31T09:17:38.965Z,60.42
2018-05-31T09:20:06.451Z,60.22
2018-05-31T09:22:34.727Z,64.40
2018-05-31T09:25:02.995Z,58.70
2018-05-31T09:27:30.450Z,61.63
2018-05-31T09:29:57.882Z,65.40
2018-05-31T09:32:25.356Z,67.62
2018-05-31T09:34:52.900Z,70.70
2018-05-31T09:37:20.319Z,66.70
2018-05-31T09:39:47.809Z,63.47
2018-05-31T09:42:15.267Z,57.47
2018-05-31T09:44:42.728Z,55.88
2018-05-31T09:47:10.291Z,63.08
2018-05-31T09:49:37.741Z,58.20
2018-05-31T09:52:05.234Z,50.58
2018-05-31T09:54:32.675Z,42.88
2018-05-31T09:57:00.143Z,29.73
2018-05-31T09:59:27.595Z,25.10
2018-05-31T10:01:55.041Z,23.48
2018-05-31T10:04:22.488Z,14.02
2018-05-31T10:06:50.047Z,12.70
2018-05-31T10:09:17.600Z,13.07
2018-05-31T10:11:45.047Z,13.07
2018-05-31T10:14:12.512Z,12.10
2018-05-31T10:16:39.931Z,9.05
2018-05-31T10:19:07.362Z,8.07
2018-05-31T10:21:34.886Z,8.48
2018-05-31T10:24:02.392Z,6.70
2018-05-31T10:26:30.644Z,5.40
2018-05-31T10:28:58.095Z,4.93
2018-05-31T10:31:25.522Z,5.00
2018-05-31T10:33:52.961Z,4.37
2018-05-31T10:36:20.467Z,6.03
2018-05-31T10:38:47.943Z,8.85
2018-05-31T10:41:15.367Z,5.22
2018-05-31T10:43:42.821Z,4.40
2018-05-31T10:46:10.263Z,3.92
2018-05-31T10:48:37.693Z,5.78
2018-05-31T10:51:05.935Z,5.97
2018-05-31T10:53:33.379Z,4.85
2018-05-31T10:56:00.868Z,5.50
2018-05-31T10:58:28.391Z,4.45
2018-05-31T11:00:55.860Z,3.62
2018-05-31T11:03:23.299Z,5.32
2018-05-31T11:05:50.736Z,6.12
2018-05-31T11:08:18.227Z,4.50
2018-05-31T11:10:45.688Z,6.30
2018-05-31T11:13:13.144Z,6.28
2018-05-31T11:15:40.719Z,5.82
2018-05-31T11:18:08.133Z,6.43
2018-05-31T11:20:35.598Z,4.72
2018-05-31T11:23:03.027Z,5.40
2018-05-31T11:25:30.523Z,6.18
2018-05-31T11:27:57.976Z,4.12
2018-05-31T11:30:25.399Z,6.15
2018-05-31T11:32:52.841Z,4.62
2018-05-31T11:35:21.039Z,5.78
2018-05-31T11:37:48.511Z,8.88
2018-05-31T11:40:15.989Z,5.82
2018-05-31T11:42:43.448Z,5.28
2018-05-31T11:45:10.985Z,6.28
2018-05-31T11:47:38.404Z,5.12
2018-05-31T11:50:06.642Z,6.43
2018-05-31T11:52:34.083Z,6.20
2018-05-31T11:55:01.531Z,5.55
2018-05-31T11:57:29.020Z,5.60
2018-05-31T11:59:56.476Z,5.28
2018-05-31T12:02:24.026Z,5.20
2018-05-31T12:04:51.606Z,5.30
2018-05-31T12:07:19.898Z,5.15
2018-05-31T12:09:47.326Z,3.78
2018-05-31T12:12:14.773Z,4.37
2018-05-31T12:14:42.238Z,3.33
2018-05-31T12:17:09.699Z,3.10
2018-05-31T12:19:37.128Z,4.05
2018-05-31T12:22:04.623Z,5.62
2018-05-31T12:24:32.074Z,3.50
2018-05-31T12:26:59.519Z,6.40
2018-05-31T12:29:26.961Z,3.78
2018-05-31T12:31:54.411Z,6.10
2018-05-31T12:34:21.909Z,2.67
2018-05-31T12:36:49.339Z,3.33
2018-05-31T12:39:16.786Z,5.82
2018-05-31T12:41:44.223Z,3.65
2018-05-31T12:44:12.440Z,6.90
2018-05-31T12:46:39.926Z,4.65
2018-05-31T12:49:07.380Z,3.47
2018-05-31T12:51:34.880Z,4.90
2018-05-31T12:54:02.371Z,5.65
2018-05-31T12:56:29.829Z,5.60
2018-05-31T12:58:57.261Z,3.75
2018-05-31T13:01:24.756Z,4.40
2018-05-31T13:03:52.191Z,3.03
2018-05-31T13:06:19.625Z,4.25
2018-05-31T13:08:47.111Z,5.55
2018-05-31T13:11:14.539Z,6.28
2018-05-31T13:13:42.027Z,4.62
2018-05-31T13:16:09.481Z,6.72
2018-05-31T13:18:37.029Z,5.05
2018-05-31T13:21:04.492Z,5.75
2018-05-31T13:23:31.980Z,8.48
2018-05-31T13:25:59.513Z,5.00
2018-05-31T13:28:26.975Z,6.35
2018-05-31T13:30:54.404Z,5.47
2018-05-31T13:33:21.874Z,5.35
2018-05-31T13:35:50.060Z,6.28
2018-05-31T13:38:17.498Z,5.07
2018-05-31T13:40:44.954Z,10.02
2018-05-31T13:43:12.425Z,4.32
2018-05-31T13:45:40.575Z,4.78
2018-05-31T13:48:08.003Z,5.22
2018-05-31T13:50:36.195Z,5.35
2018-05-31T13:53:04.423Z,7.85
2018-05-31T13:55:31.875Z,5.45
2018-05-31T13:57:59.321Z,4.85
2018-05-31T14:00:26.814Z,7.60
2018-05-31T14:02:54.243Z,8.30
2018-05-31T14:05:21.689Z,7.05
2018-05-31T14:07:49.247Z,7.25
2018-05-31T14:10:16.806Z,9.13
2018-05-31T14:12:44.251Z,8.45
2018-05-31T14:15:11.747Z,10.05
2018-05-31T14:17:39.191Z,7.90
2018-05-31T14:20:06.625Z,7.22
2018-05-31T14:22:34.053Z,7.55
2018-05-31T14:25:02.261Z,6.28
2018-05-31T14:27:29.701Z,6.50
2018-05-31T14:29:57.196Z,9.85
2018-05-31T14:32:24.651Z,7.22
2018-05-31T14:34:52.091Z,8.65
2018-05-31T14:37:19.540Z,6.30
2018-05-31T14:39:47.009Z,9.13
2018-05-31T14:42:14.460Z,9.27
2018-05-31T14:44:41.920Z,10.50
2018-05-31T14:47:09.398Z,8.80
2018-05-31T14:49:36.856Z,10.02
2018-05-31T14:52:04.298Z,11.25
2018-05-31T14:54:31.748Z,11.00
2018-05-31T14:56:59.226Z,10.77
2018-05-31T14:59:26.717Z,11.80
2018-05-31T15:01:54.165Z,12.60
2018-05-31T15:04:21.602Z,12.88
2018-05-31T15:06:49.157Z,14.00
2018-05-31T15:09:16.603Z,13.68
2018-05-31T15:11:44.048Z,18.15
2018-05-31T15:14:11.647Z,14.38
2018-05-31T15:16:39.178Z,17.60
2018-05-31T15:19:07.360Z,18.35
2018-05-31T15:21:34.806Z,17.48
2018-05-31T15:24:02.231Z,19.12
2018-05-31T15:26:30.442Z,21.33
2018-05-31T15:28:57.887Z,23.75
2018-05-31T15:31:25.345Z,23.35
2018-05-31T15:33:52.798Z,22.65
2018-05-31T15:36:20.250Z,19.12
2018-05-31T15:38:47.746Z,19.33
2018-05-31T15:41:15.189Z,19.00
2018-05-31T15:43:42.627Z,17.85
2018-05-31T15:46:10.067Z,14.23
2018-05-31T15:48:38.275Z,13.75
2018-05-31T15:51:05.746Z,13.70
2018-05-31T15:53:33.184Z,13.40
2018-05-31T15:56:00.627Z,13.23
2018-05-31T15:58:28.071Z,14.38
2018-05-31T16:00:56.282Z,14.00
2018-05-31T16:03:23.744Z,14.55
2018-05-31T16:05:51.203Z,16.25
2018-05-31T16:08:18.671Z,17.00
2018-05-31T16:10:46.122Z,17.33
2018-05-31T16:13:13.590Z,17.85
2018-05-31T16:15:41.023Z,15.00
2018-05-31T16:18:08.476Z,16.48
2018-05-31T16:20:35.921Z,19.37
2018-05-31T16:23:03.355Z,17.40
2018-05-31T16:25:31.567Z,19.75
2018-05-31T16:27:59.018Z,16.45
2018-05-31T16:30:26.448Z,21.80
2018-05-31T16:32:55.033Z,17.48
2018-05-31T16:35:23.262Z,15.50
2018-05-31T16:37:50.711Z,17.52
2018-05-31T16:40:18.165Z,18.02
2018-05-31T16:42:45.613Z,17.80
2018-05-31T16:45:13.181Z,17.33
2018-05-31T16:47:40.653Z,15.60
2018-05-31T16:50:08.111Z,17.23
2018-05-31T16:52:35.546Z,16.10
2018-05-31T16:55:02.967Z,16.05
2018-05-31T16:57:31.186Z,15.45
2018-05-31T16:59:58.637Z,15.25
2018-05-31T17:02:26.071Z,15.45
2018-05-31T17:04:53.516Z,15.13
2018-05-31T17:07:21.715Z,14.85
2018-05-31T17:09:49.178Z,16.12
2018-05-31T17:12:16.607Z,13.55
2018-05-31T17:14:44.826Z,15.27
2018-05-31T17:17:12.258Z,12.32
2018-05-31T17:19:39.694Z,13.67
2018-05-31T17:22:07.991Z,11.95
2018-05-31T17:24:35.423Z,10.85
2018-05-31T17:27:03.671Z,10.88
2018-05-31T17:29:31.103Z,13.20
2018-05-31T17:31:58.567Z,11.70
2018-05-31T17:34:26.045Z,14.18
2018-05-31T17:36:53.484Z,11.57
2018-05-31T17:39:20.939Z,9.88
2018-05-31T17:41:48.706Z,13.62
2018-05-31T17:44:16.132Z,14.48
2018-05-31T17:46:43.604Z,12.50
2018-05-31T17:49:11.018Z,9.77
2018-05-31T17:51:39.228Z,13.40
2018-05-31T17:54:06.671Z,11.90
2018-05-31T17:56:34.134Z,11.55
2018-05-31T17:59:01.627Z,14.35
2018-05-31T18:01:29.080Z,9.63
2018-05-31T18:03:56.536Z,13.30
2018-05-31T18:06:24.006Z,12.15
2018-05-31T18:08:51.443Z,11.40
2018-05-31T18:11:18.889Z,13.73
2018-05-31T18:13:46.357Z,13.05
2018-05-31T18:16:13.791Z,12.57
2018-05-31T18:18:41.372Z,17.33
2018-05-31T18:21:08.839Z,14.73
2018-05-31T18:23:36.296Z,14.00
2018-05-31T18:26:03.759Z,15.63
2018-05-31T18:28:31.239Z,12.65
2018-05-31T18:30:59.451Z,14.63
2018-05-31T18:33:26.943Z,14.70
2018-05-31T18:35:54.423Z,13.60
2018-05-31T18:38:21.859Z,14.18
2018-05-31T18:40:49.295Z,11.88
2018-05-31T18:43:16.751Z,13.77
2018-05-31T18:45:44.255Z,14.23
2018-05-31T18:48:11.680Z,15.50
2018-05-31T18:50:39.133Z,16.23
2018-05-31T18:53:06.595Z,13.00
2018-05-31T18:55:34.044Z,11.50
2018-05-31T18:58:01.495Z,14.33
2018-05-31T19:00:28.943Z,12.63
2018-05-31T19:02:56.384Z,12.60
2018-05-31T19:05:24.623Z,14.45
2018-05-31T19:07:52.067Z,12.35
2018-05-31T19:10:19.526Z,13.32
2018-05-31T19:12:52.791Z,11.82
2018-05-31T19:15:21.768Z,10.18
2018-05-31T19:17:47.721Z,11.48
2018-05-31T19:20:15.145Z,11.27
2018-05-31T19:22:43.372Z,11.52
2018-05-31T19:25:16.616Z,11.07
2018-05-31T19:27:44.821Z,12.10
2018-05-31T19:30:17.825Z,14.57
2018-05-31T19:32:45.390Z,10.95
2018-05-31T19:35:18.603Z,14.30
2018-05-31T19:37:46.139Z,11.57
2018-05-31T19:40:13.644Z,11.88
2018-05-31T19:42:47.626Z,12.85
2018-05-31T19:45:15.715Z,12.20
2018-05-31T19:47:44.042Z,11.93
2018-05-31T19:50:11.516Z,11.12
2018-05-31T19:52:44.660Z,12.88
2018-05-31T19:55:12.879Z,12.18
2018-05-31T19:57:46.060Z,11.43
2018-05-31T20:00:19.146Z,14.15
2018-05-31T20:02:52.195Z,11.85
2018-05-31T20:05:20.410Z,14.02
2018-05-31T20:07:47.851Z,14.48
2018-05-31T20:10:15.355Z,13.88
2018-05-31T20:12:42.899Z,10.52
2018-05-31T20:15:10.356Z,13.05
2018-05-31T20:17:37.820Z,14.18
2018-05-31T20:20:05.399Z,12.00
2018-05-31T20:22:32.935Z,16.40
2018-05-31T20:25:00.498Z,12.32
2018-05-31T20:27:27.990Z,12.50
2018-05-31T20:29:55.427Z,13.13
2018-05-31T20:32:22.982Z,14.25
2018-05-31T20:34:50.427Z,13.93
2018-05-31T20:37:19.226Z,20.77
2018-05-31T20:39:47.697Z,18.37
2018-05-31T20:42:15.147Z,18.02
2018-05-31T20:44:42.579Z,15.55
2018-05-31T20:47:10.076Z,15.65
2018-05-31T20:49:37.519Z,15.90
2018-05-31T20:52:05.000Z,18.12
2018-05-31T20:54:32.456Z,17.45
2018-05-31T20:57:00.017Z,18.33
2018-05-31T20:59:27.471Z,16.87
2018-05-31T21:01:54.907Z,18.48
2018-05-31T21:04:22.363Z,18.95
2018-05-31T21:06:49.875Z,20.05
2018-05-31T21:09:18.074Z,16.77
2018-05-31T21:11:45.553Z,17.67
2018-05-31T21:14:13.009Z,16.37
2018-05-31T21:16:40.575Z,17.23
2018-05-31T21:19:08.046Z,17.98
2018-05-31T21:21:35.489Z,19.37
2018-05-31T21:24:02.946Z,17.37
2018-05-31T21:26:30.403Z,16.77
2018-05-31T21:28:57.849Z,17.55
2018-05-31T21:31:25.320Z,17.12
2018-05-31T21:33:52.757Z,18.25
2018-05-31T21:36:20.320Z,17.95
2018-05-31T21:38:47.692Z,21.10
2018-05-31T21:41:15.187Z,17.17
2018-05-31T21:43:42.645Z,18.40
2018-05-31T21:46:10.075Z,20.05
2018-05-31T21:48:37.519Z,21.65
2018-05-31T21:51:04.983Z,20.10
2018-05-31T21:53:32.435Z,19.02
2018-05-31T21:55:59.871Z,19.92
2018-05-31T21:58:27.350Z,20.17
2018-05-31T22:00:55.695Z,18.70
2018-05-31T22:03:23.148Z,22.35
2018-05-31T22:05:50.678Z,18.45
2018-05-31T22:08:18.876Z,21.73
2018-05-31T22:10:46.331Z,18.80
2018-05-31T22:13:13.817Z,22.05
2018-05-31T22:15:41.248Z,19.73
2018-05-31T22:18:08.731Z,21.27
2018-05-31T22:20:36.283Z,22.95
2018-05-31T22:23:03.747Z,20.70
2018-05-31T22:25:31.195Z,20.37
2018-05-31T22:27:58.651Z,18.33
2018-05-31T22:30:26.160Z,18.77
2018-05-31T22:32:53.682Z,18.15
2018-05-31T22:35:21.150Z,17.90
2018-05-31T22:37:48.603Z,19.05
2018-05-31T22:40:16.102Z,18.77
2018-05-31T22:42:44.313Z,20.60
2018-05-31T22:45:11.791Z,21.30
2018-05-31T22:47:39.448Z,22.83
2018-05-31T22:50:06.884Z,25.73
2018-05-31T22:52:34.326Z,23.95
2018-05-31T22:55:01.770Z,24.95
2018-05-31T22:57:30.011Z,27.00
2018-05-31T22:59:57.437Z,29.98
2018-05-31T23:02:24.894Z,29.80
2018-05-31T23:04:52.342Z,30.73
2018-05-31T23:07:19.771Z,32.30
2018-05-31T23:09:47.970Z,34.50
2018-05-31T23:12:15.553Z,30.33
2018-05-31T23:14:43.028Z,30.05
2018-05-31T23:17:10.490Z,32.03
2018-05-31T23:19:37.939Z,30.17
2018-05-31T23:22:05.381Z,27.73
2018-05-31T23:24:32.846Z,28.12
2018-05-31T23:27:00.308Z,28.77
2018-05-31T23:29:27.770Z,35.47
2018-05-31T23:31:55.213Z,33.65
2018-05-31T23:34:22.679Z,30.10
2018-05-31T23:36:50.139Z,37.25
2018-05-31T23:39:17.596Z,31.60
2018-05-31T23:41:45.063Z,30.30
2018-05-31T23:44:12.700Z,34.40
2018-05-31T23:46:40.116Z,32.60
2018-05-31T23:49:08.332Z,31.07
2018-05-31T23:51:35.799Z,30.23
2018-05-31T23:54:03.260Z,29.08
2018-05-31T23:56:30.716Z,29.50
2018-05-31T23:58:58.167Z,28.27
